sensor_id;sensor_type;location;lat;lon;timestamp;pressure;altitude;pressure_sealevel;temperature;humidity
55460;BME280;41326;45.302;-122.946;2023-04-09T00:03:23;101124.32;;;18.16;58.22
55460;BME280;41326;45.302;-122.946;2023-04-09T00:05:53;101126.78;;;18.23;58.10
55460;BME280;41326;45.302;-122.946;2023-04-09T00:08:24;101126.31;;;18.41;57.67
55460;BME280;41326;45.302;-122.946;2023-04-09T00:10:55;101127.24;;;18.43;57.51
55460;BME280;41326;45.302;-122.946;2023-04-09T00:13:25;101124.77;;;18.44;57.46
55460;BME280;41326;45.302;-122.946;2023-04-09T00:15:55;101119.94;;;18.43;57.52
55460;BME280;41326;45.302;-122.946;2023-04-09T00:18:25;101113.36;;;18.43;57.48
55460;BME280;41326;45.302;-122.946;2023-04-09T00:20:56;101109.67;;;18.42;57.50
55460;BME280;41326;45.302;-122.946;2023-04-09T00:23:26;101110.29;;;18.47;57.35
55460;BME280;41326;45.302;-122.946;2023-04-09T00:26:04;101108.20;;;18.40;57.65
55460;BME280;41326;45.302;-122.946;2023-04-09T00:28:27;101105.41;;;18.42;57.63
55460;BME280;41326;45.302;-122.946;2023-04-09T00:30:57;101102.01;;;18.38;57.80
55460;BME280;41326;45.302;-122.946;2023-04-09T00:33:27;101100.03;;;18.34;57.95
55460;BME280;41326;45.302;-122.946;2023-04-09T00:35:57;101100.93;;;18.36;57.90
55460;BME280;41326;45.302;-122.946;2023-04-09T00:38:27;101096.10;;;18.33;57.92
55460;BME280;41326;45.302;-122.946;2023-04-09T00:40:58;101095.21;;;18.35;57.84
55460;BME280;41326;45.302;-122.946;2023-04-09T00:43:28;101091.77;;;18.36;57.84
55460;BME280;41326;45.302;-122.946;2023-04-09T00:45:58;101090.67;;;18.35;58.06
55460;BME280;41326;45.302;-122.946;2023-04-09T00:48:28;101092.10;;;18.41;58.58
55460;BME280;41326;45.302;-122.946;2023-04-09T00:50:58;101090.71;;;18.41;60.33
55460;BME280;41326;45.302;-122.946;2023-04-09T00:53:30;101089.73;;;18.44;61.90
55460;BME280;41326;45.302;-122.946;2023-04-09T00:55:59;101088.29;;;18.48;63.14
55460;BME280;41326;45.302;-122.946;2023-04-09T00:58:29;101086.91;;;18.49;64.37
55460;BME280;41326;45.302;-122.946;2023-04-09T01:00:59;101090.40;;;18.52;64.40
55460;BME280;41326;45.302;-122.946;2023-04-09T01:03:30;101088.99;;;18.48;65.67
55460;BME280;41326;45.302;-122.946;2023-04-09T01:06:06;101090.21;;;18.59;66.98
55460;BME280;41326;45.302;-122.946;2023-04-09T01:08:37;101088.62;;;18.63;68.00
55460;BME280;41326;45.302;-122.946;2023-04-09T01:11:06;101087.72;;;18.63;68.11
55460;BME280;41326;45.302;-122.946;2023-04-09T01:13:40;101091.15;;;18.63;67.66
55460;BME280;41326;45.302;-122.946;2023-04-09T01:16:02;101092.50;;;18.63;67.09
55460;BME280;41326;45.302;-122.946;2023-04-09T01:18:35;101091.29;;;18.63;66.21
55460;BME280;41326;45.302;-122.946;2023-04-09T01:21:05;101090.88;;;18.64;65.82
55460;BME280;41326;45.302;-122.946;2023-04-09T01:23:44;101094.94;;;18.67;65.46
55460;BME280;41326;45.302;-122.946;2023-04-09T01:26:09;101094.50;;;18.71;65.09
55460;BME280;41326;45.302;-122.946;2023-04-09T01:28:38;101093.12;;;18.71;64.92
55460;BME280;41326;45.302;-122.946;2023-04-09T01:31:05;101091.57;;;18.75;64.78
55460;BME280;41326;45.302;-122.946;2023-04-09T01:33:34;101093.86;;;18.75;64.72
55460;BME280;41326;45.302;-122.946;2023-04-09T01:36:04;101094.61;;;18.81;64.66
55460;BME280;41326;45.302;-122.946;2023-04-09T01:38:33;101094.25;;;18.80;64.50
55460;BME280;41326;45.302;-122.946;2023-04-09T01:41:04;101089.09;;;18.80;64.48
55460;BME280;41326;45.302;-122.946;2023-04-09T01:43:33;101086.59;;;18.82;64.76
55460;BME280;41326;45.302;-122.946;2023-04-09T01:46:04;101090.81;;;18.80;64.82
55460;BME280;41326;45.302;-122.946;2023-04-09T01:48:34;101092.94;;;18.77;64.72
55460;BME280;41326;45.302;-122.946;2023-04-09T01:51:04;101096.56;;;18.78;64.36
55460;BME280;41326;45.302;-122.946;2023-04-09T01:53:35;101098.45;;;18.78;63.92
55460;BME280;41326;45.302;-122.946;2023-04-09T01:56:06;101099.19;;;18.77;63.68
55460;BME280;41326;45.302;-122.946;2023-04-09T01:58:35;101100.96;;;18.76;63.26
55460;BME280;41326;45.302;-122.946;2023-04-09T02:01:11;101095.22;;;18.77;62.76
55460;BME280;41326;45.302;-122.946;2023-04-09T02:03:40;101093.57;;;18.74;62.71
55460;BME280;41326;45.302;-122.946;2023-04-09T02:06:12;101090.76;;;18.75;62.45
55460;BME280;41326;45.302;-122.946;2023-04-09T02:08:39;101090.31;;;18.70;62.50
55460;BME280;41326;45.302;-122.946;2023-04-09T02:11:09;101090.37;;;18.66;62.38
55460;BME280;41326;45.302;-122.946;2023-04-09T02:13:39;101087.94;;;18.66;62.16
55460;BME280;41326;45.302;-122.946;2023-04-09T02:16:09;101088.17;;;18.64;62.02
55460;BME280;41326;45.302;-122.946;2023-04-09T02:18:38;101086.15;;;18.62;61.75
55460;BME280;41326;45.302;-122.946;2023-04-09T02:21:09;101079.52;;;18.62;61.52
55460;BME280;41326;45.302;-122.946;2023-04-09T02:23:39;101081.63;;;18.62;61.40
55460;BME280;41326;45.302;-122.946;2023-04-09T02:26:09;101084.62;;;18.62;61.39
55460;BME280;41326;45.302;-122.946;2023-04-09T02:28:40;101086.42;;;18.63;61.32
55460;BME280;41326;45.302;-122.946;2023-04-09T02:31:10;101081.68;;;18.61;61.20
55460;BME280;41326;45.302;-122.946;2023-04-09T02:33:40;101084.56;;;18.57;61.25
55460;BME280;41326;45.302;-122.946;2023-04-09T02:36:11;101083.79;;;18.58;61.09
55460;BME280;41326;45.302;-122.946;2023-04-09T02:38:40;101086.44;;;18.60;60.72
55460;BME280;41326;45.302;-122.946;2023-04-09T02:41:11;101088.05;;;18.59;60.61
55460;BME280;41326;45.302;-122.946;2023-04-09T02:43:41;101089.57;;;18.56;60.59
55460;BME280;41326;45.302;-122.946;2023-04-09T02:46:12;101091.10;;;18.57;60.43
55460;BME280;41326;45.302;-122.946;2023-04-09T02:48:42;101086.50;;;18.55;60.46
55460;BME280;41326;45.302;-122.946;2023-04-09T02:51:12;101087.60;;;18.54;60.38
55460;BME280;41326;45.302;-122.946;2023-04-09T02:53:43;101088.52;;;18.51;60.38
55460;BME280;41326;45.302;-122.946;2023-04-09T02:56:13;101091.21;;;18.53;60.28
55460;BME280;41326;45.302;-122.946;2023-04-09T02:58:44;101088.39;;;18.53;60.05
55460;BME280;41326;45.302;-122.946;2023-04-09T03:01:14;101085.53;;;18.52;59.95
55460;BME280;41326;45.302;-122.946;2023-04-09T03:03:45;101080.59;;;18.49;60.04
55460;BME280;41326;45.302;-122.946;2023-04-09T03:06:15;101079.18;;;18.49;59.93
55460;BME280;41326;45.302;-122.946;2023-04-09T03:08:45;101079.19;;;18.49;59.87
55460;BME280;41326;45.302;-122.946;2023-04-09T03:11:16;101077.27;;;18.46;59.93
55460;BME280;41326;45.302;-122.946;2023-04-09T03:13:46;101075.27;;;18.49;59.81
55460;BME280;41326;45.302;-122.946;2023-04-09T03:16:17;101075.49;;;18.48;59.91
55460;BME280;41326;45.302;-122.946;2023-04-09T03:18:47;101076.61;;;18.47;59.83
55460;BME280;41326;45.302;-122.946;2023-04-09T03:21:17;101081.78;;;18.48;59.80
55460;BME280;41326;45.302;-122.946;2023-04-09T03:23:47;101087.13;;;18.44;59.92
55460;BME280;41326;45.302;-122.946;2023-04-09T03:26:18;101093.04;;;18.43;59.97
55460;BME280;41326;45.302;-122.946;2023-04-09T03:28:48;101091.24;;;18.42;59.99
55460;BME280;41326;45.302;-122.946;2023-04-09T03:31:18;101089.34;;;18.45;59.87
55460;BME280;41326;45.302;-122.946;2023-04-09T03:33:49;101093.37;;;18.45;59.84
55460;BME280;41326;45.302;-122.946;2023-04-09T03:36:19;101094.08;;;18.44;59.82
55460;BME280;41326;45.302;-122.946;2023-04-09T03:38:49;101094.72;;;18.42;59.78
55460;BME280;41326;45.302;-122.946;2023-04-09T03:41:20;101097.57;;;18.42;59.66
55460;BME280;41326;45.302;-122.946;2023-04-09T03:43:51;101104.13;;;18.41;59.72
55460;BME280;41326;45.302;-122.946;2023-04-09T03:46:21;101113.08;;;18.40;59.76
55460;BME280;41326;45.302;-122.946;2023-04-09T03:48:51;101114.67;;;18.38;59.84
55460;BME280;41326;45.302;-122.946;2023-04-09T03:51:21;101109.78;;;18.40;59.74
55460;BME280;41326;45.302;-122.946;2023-04-09T03:53:51;101109.40;;;18.38;59.89
55460;BME280;41326;45.302;-122.946;2023-04-09T03:56:22;101116.30;;;18.40;59.87
55460;BME280;41326;45.302;-122.946;2023-04-09T03:58:52;101119.31;;;18.38;59.82
55460;BME280;41326;45.302;-122.946;2023-04-09T04:01:22;101124.27;;;18.37;59.78
55460;BME280;41326;45.302;-122.946;2023-04-09T04:03:52;101124.58;;;18.36;59.87
55460;BME280;41326;45.302;-122.946;2023-04-09T04:06:22;101124.43;;;18.36;59.90
55460;BME280;41326;45.302;-122.946;2023-04-09T04:08:53;101122.88;;;18.34;60.08
55460;BME280;41326;45.302;-122.946;2023-04-09T04:11:23;101125.29;;;18.34;60.13
55460;BME280;41326;45.302;-122.946;2023-04-09T04:13:53;101126.87;;;18.33;60.18
55460;BME280;41326;45.302;-122.946;2023-04-09T04:16:24;101129.16;;;18.33;60.22
55460;BME280;41326;45.302;-122.946;2023-04-09T04:18:54;101123.53;;;18.32;60.21
55460;BME280;41326;45.302;-122.946;2023-04-09T04:21:24;101126.94;;;18.33;60.03
55460;BME280;41326;45.302;-122.946;2023-04-09T04:23:54;101133.42;;;18.32;60.13
55460;BME280;41326;45.302;-122.946;2023-04-09T04:26:25;101139.41;;;18.31;60.23
55460;BME280;41326;45.302;-122.946;2023-04-09T04:28:56;101130.51;;;18.32;60.27
55460;BME280;41326;45.302;-122.946;2023-04-09T04:31:26;101133.87;;;18.32;60.21
55460;BME280;41326;45.302;-122.946;2023-04-09T04:33:56;101136.13;;;18.29;60.39
55460;BME280;41326;45.302;-122.946;2023-04-09T04:36:26;101140.01;;;18.30;60.32
55460;BME280;41326;45.302;-122.946;2023-04-09T04:38:57;101151.26;;;18.29;60.30
55460;BME280;41326;45.302;-122.946;2023-04-09T04:42:35;101152.40;;;18.31;60.11
55460;BME280;41326;45.302;-122.946;2023-04-09T04:45:06;101155.28;;;18.25;60.35
55460;BME280;41326;45.302;-122.946;2023-04-09T04:47:35;101153.90;;;18.24;60.36
55460;BME280;41326;45.302;-122.946;2023-04-09T04:50:06;101154.45;;;18.23;60.41
55460;BME280;41326;45.302;-122.946;2023-04-09T04:52:47;101152.32;;;18.23;60.41
55460;BME280;41326;45.302;-122.946;2023-04-09T04:55:17;101154.04;;;18.23;60.37
55460;BME280;41326;45.302;-122.946;2023-04-09T04:57:49;101155.69;;;18.22;60.33
55460;BME280;41326;45.302;-122.946;2023-04-09T05:00:19;101156.67;;;18.22;60.31
55460;BME280;41326;45.302;-122.946;2023-04-09T05:02:48;101157.18;;;18.23;60.28
55460;BME280;41326;45.302;-122.946;2023-04-09T05:05:19;101154.42;;;18.22;60.29
55460;BME280;41326;45.302;-122.946;2023-04-09T05:07:49;101158.83;;;18.23;60.30
55460;BME280;41326;45.302;-122.946;2023-04-09T05:10:20;101162.74;;;18.25;60.17
55460;BME280;41326;45.302;-122.946;2023-04-09T05:12:50;101169.29;;;18.22;60.27
55460;BME280;41326;45.302;-122.946;2023-04-09T05:15:21;101170.72;;;18.21;60.21
55460;BME280;41326;45.302;-122.946;2023-04-09T05:17:51;101173.49;;;18.23;60.13
55460;BME280;41326;45.302;-122.946;2023-04-09T05:20:22;101175.34;;;18.23;60.05
55460;BME280;41326;45.302;-122.946;2023-04-09T05:22:53;101175.22;;;18.21;60.12
55460;BME280;41326;45.302;-122.946;2023-04-09T05:25:23;101169.60;;;18.21;60.04
55460;BME280;41326;45.302;-122.946;2023-04-09T05:27:54;101163.96;;;18.16;60.33
55460;BME280;41326;45.302;-122.946;2023-04-09T05:30:24;101165.97;;;18.15;60.39
55460;BME280;41326;45.302;-122.946;2023-04-09T05:32:54;101163.84;;;18.16;60.34
55460;BME280;41326;45.302;-122.946;2023-04-09T05:35:24;101166.98;;;18.16;60.36
55460;BME280;41326;45.302;-122.946;2023-04-09T05:37:54;101166.84;;;18.17;60.38
55460;BME280;41326;45.302;-122.946;2023-04-09T05:40:26;101166.00;;;18.16;60.46
55460;BME280;41326;45.302;-122.946;2023-04-09T05:42:55;101166.83;;;18.13;60.62
55460;BME280;41326;45.302;-122.946;2023-04-09T05:45:25;101164.54;;;18.13;60.69
55460;BME280;41326;45.302;-122.946;2023-04-09T05:47:56;101158.87;;;18.15;60.66
55460;BME280;41326;45.302;-122.946;2023-04-09T05:50:26;101161.84;;;18.11;60.79
55460;BME280;41326;45.302;-122.946;2023-04-09T05:52:57;101161.94;;;18.13;60.79
55460;BME280;41326;45.302;-122.946;2023-04-09T05:55:27;101163.38;;;18.12;60.83
55460;BME280;41326;45.302;-122.946;2023-04-09T05:57:57;101167.47;;;18.12;60.77
55460;BME280;41326;45.302;-122.946;2023-04-09T06:00:27;101166.53;;;18.10;60.83
55460;BME280;41326;45.302;-122.946;2023-04-09T06:02:58;101169.94;;;18.09;60.95
55460;BME280;41326;45.302;-122.946;2023-04-09T06:05:28;101172.15;;;18.07;61.08
55460;BME280;41326;45.302;-122.946;2023-04-09T06:07:58;101174.20;;;18.07;61.06
55460;BME280;41326;45.302;-122.946;2023-04-09T06:10:31;101178.12;;;18.07;61.07
55460;BME280;41326;45.302;-122.946;2023-04-09T06:13:00;101176.75;;;18.08;61.05
55460;BME280;41326;45.302;-122.946;2023-04-09T06:15:30;101169.52;;;18.09;61.00
55460;BME280;41326;45.302;-122.946;2023-04-09T06:18:00;101161.02;;;18.09;60.89
55460;BME280;41326;45.302;-122.946;2023-04-09T06:20:30;101168.28;;;18.09;60.87
55460;BME280;41326;45.302;-122.946;2023-04-09T06:23:01;101166.71;;;18.11;60.90
55460;BME280;41326;45.302;-122.946;2023-04-09T06:25:31;101161.60;;;18.08;61.06
55460;BME280;41326;45.302;-122.946;2023-04-09T06:28:03;101161.06;;;18.05;61.16
55460;BME280;41326;45.302;-122.946;2023-04-09T06:30:33;101148.27;;;18.03;61.23
55460;BME280;41326;45.302;-122.946;2023-04-09T06:33:03;101145.87;;;18.00;61.31
55460;BME280;41326;45.302;-122.946;2023-04-09T06:35:33;101146.53;;;17.98;61.39
55460;BME280;41326;45.302;-122.946;2023-04-09T06:38:04;101152.59;;;17.97;61.33
55460;BME280;41326;45.302;-122.946;2023-04-09T06:40:36;101149.93;;;17.98;61.40
55460;BME280;41326;45.302;-122.946;2023-04-09T06:43:05;101142.25;;;17.97;61.54
55460;BME280;41326;45.302;-122.946;2023-04-09T06:45:35;101143.12;;;17.95;61.60
55460;BME280;41326;45.302;-122.946;2023-04-09T06:48:05;101143.57;;;17.94;61.67
55460;BME280;41326;45.302;-122.946;2023-04-09T06:50:35;101138.03;;;17.94;61.65
55460;BME280;41326;45.302;-122.946;2023-04-09T06:53:07;101130.28;;;17.97;61.53
55460;BME280;41326;45.302;-122.946;2023-04-09T06:55:36;101128.48;;;17.93;61.69
55460;BME280;41326;45.302;-122.946;2023-04-09T06:58:06;101139.64;;;17.90;61.71
55460;BME280;41326;45.302;-122.946;2023-04-09T07:00:37;101137.74;;;17.87;61.79
55460;BME280;41326;45.302;-122.946;2023-04-09T07:03:07;101137.35;;;17.89;61.82
55460;BME280;41326;45.302;-122.946;2023-04-09T07:05:37;101135.45;;;17.87;61.84
55460;BME280;41326;45.302;-122.946;2023-04-09T07:08:08;101135.00;;;17.85;61.93
55460;BME280;41326;45.302;-122.946;2023-04-09T07:10:38;101137.85;;;17.83;62.07
55460;BME280;41326;45.302;-122.946;2023-04-09T07:13:08;101135.61;;;17.86;62.07
55460;BME280;41326;45.302;-122.946;2023-04-09T07:15:39;101133.62;;;17.87;62.08
55460;BME280;41326;45.302;-122.946;2023-04-09T07:18:09;101129.68;;;17.87;62.00
55460;BME280;41326;45.302;-122.946;2023-04-09T07:20:39;101126.70;;;17.88;62.08
55460;BME280;41326;45.302;-122.946;2023-04-09T07:23:10;101124.66;;;17.95;62.57
55460;BME280;41326;45.302;-122.946;2023-04-09T07:25:40;101123.60;;;17.97;62.65
55460;BME280;41326;45.302;-122.946;2023-04-09T07:28:12;101125.49;;;18.01;62.43
55460;BME280;41326;45.302;-122.946;2023-04-09T07:30:41;101128.09;;;18.02;62.31
55460;BME280;41326;45.302;-122.946;2023-04-09T07:33:12;101134.80;;;18.05;62.10
55460;BME280;41326;45.302;-122.946;2023-04-09T07:35:42;101142.01;;;18.07;61.90
55460;BME280;41326;45.302;-122.946;2023-04-09T07:38:12;101146.03;;;18.03;61.87
55460;BME280;41326;45.302;-122.946;2023-04-09T07:40:42;101146.36;;;17.95;62.03
55460;BME280;41326;45.302;-122.946;2023-04-09T07:43:13;101145.18;;;17.90;62.29
55460;BME280;41326;45.302;-122.946;2023-04-09T07:45:43;101150.40;;;17.84;62.58
55460;BME280;41326;45.302;-122.946;2023-04-09T07:48:13;101152.67;;;17.79;62.70
55460;BME280;41326;45.302;-122.946;2023-04-09T07:50:44;101150.97;;;17.81;62.69
55460;BME280;41326;45.302;-122.946;2023-04-09T07:53:14;101152.72;;;17.79;62.89
55460;BME280;41326;45.302;-122.946;2023-04-09T07:55:45;101157.59;;;17.79;63.00
55460;BME280;41326;45.302;-122.946;2023-04-09T07:58:15;101156.40;;;17.73;63.09
55460;BME280;41326;45.302;-122.946;2023-04-09T08:00:46;101158.22;;;17.71;63.14
55460;BME280;41326;45.302;-122.946;2023-04-09T08:03:15;101163.26;;;17.71;63.26
55460;BME280;41326;45.302;-122.946;2023-04-09T08:05:45;101164.08;;;17.74;63.23
55460;BME280;41326;45.302;-122.946;2023-04-09T08:08:16;101167.48;;;17.74;63.33
55460;BME280;41326;45.302;-122.946;2023-04-09T08:10:46;101168.72;;;17.68;63.66
55460;BME280;41326;45.302;-122.946;2023-04-09T08:13:17;101167.85;;;17.70;63.70
55460;BME280;41326;45.302;-122.946;2023-04-09T08:15:46;101168.84;;;17.65;63.89
55460;BME280;41326;45.302;-122.946;2023-04-09T08:18:17;101163.42;;;17.64;63.81
55460;BME280;41326;45.302;-122.946;2023-04-09T08:20:47;101170.84;;;17.68;63.60
55460;BME280;41326;45.302;-122.946;2023-04-09T08:23:18;101172.02;;;17.72;63.56
55460;BME280;41326;45.302;-122.946;2023-04-09T08:25:48;101173.62;;;17.81;63.26
55460;BME280;41326;45.302;-122.946;2023-04-09T08:28:18;101173.21;;;17.84;63.19
55460;BME280;41326;45.302;-122.946;2023-04-09T08:30:49;101173.30;;;17.86;63.12
55460;BME280;41326;45.302;-122.946;2023-04-09T08:33:19;101177.32;;;17.89;62.94
55460;BME280;41326;45.302;-122.946;2023-04-09T08:35:49;101173.65;;;17.87;63.05
55460;BME280;41326;45.302;-122.946;2023-04-09T08:38:20;101174.70;;;17.85;63.04
55460;BME280;41326;45.302;-122.946;2023-04-09T08:40:50;101175.55;;;17.78;63.17
55460;BME280;41326;45.302;-122.946;2023-04-09T08:43:21;101177.40;;;17.73;63.42
55460;BME280;41326;45.302;-122.946;2023-04-09T08:45:51;101177.36;;;17.69;63.63
55460;BME280;41326;45.302;-122.946;2023-04-09T08:48:22;101178.06;;;17.67;63.80
55460;BME280;41326;45.302;-122.946;2023-04-09T08:50:52;101179.27;;;17.66;63.83
55460;BME280;41326;45.302;-122.946;2023-04-09T08:53:23;101176.51;;;17.63;63.95
55460;BME280;41326;45.302;-122.946;2023-04-09T08:55:53;101173.71;;;17.61;64.06
55460;BME280;41326;45.302;-122.946;2023-04-09T08:58:22;101171.33;;;17.59;63.92
55460;BME280;41326;45.302;-122.946;2023-04-09T09:00:53;101170.13;;;17.55;64.03
55460;BME280;41326;45.302;-122.946;2023-04-09T09:03:24;101166.16;;;17.56;64.09
55460;BME280;41326;45.302;-122.946;2023-04-09T09:05:54;101164.21;;;17.56;64.10
55460;BME280;41326;45.302;-122.946;2023-04-09T09:08:28;101169.11;;;17.56;64.17
55460;BME280;41326;45.302;-122.946;2023-04-09T09:10:55;101171.83;;;17.55;64.23
55460;BME280;41326;45.302;-122.946;2023-04-09T09:13:27;101169.16;;;17.54;64.18
55460;BME280;41326;45.302;-122.946;2023-04-09T09:16:11;101168.04;;;17.55;64.15
55460;BME280;41326;45.302;-122.946;2023-04-09T09:20:59;101167.89;;;17.55;63.88
55460;BME280;41326;45.302;-122.946;2023-04-09T09:23:34;101164.51;;;17.63;63.64
55460;BME280;41326;45.302;-122.946;2023-04-09T09:25:56;101167.72;;;17.64;63.67
55460;BME280;41326;45.302;-122.946;2023-04-09T09:28:27;101166.68;;;17.65;63.67
55460;BME280;41326;45.302;-122.946;2023-04-09T09:33:27;101169.40;;;17.67;63.67
55460;BME280;41326;45.302;-122.946;2023-04-09T09:35:59;101163.75;;;17.68;63.65
55460;BME280;41326;45.302;-122.946;2023-04-09T09:38:28;101164.34;;;17.63;63.65
55460;BME280;41326;45.302;-122.946;2023-04-09T09:41:00;101167.89;;;17.59;63.68
55460;BME280;41326;45.302;-122.946;2023-04-09T09:43:33;101169.64;;;17.54;63.97
55460;BME280;41326;45.302;-122.946;2023-04-09T09:46:00;101173.01;;;17.55;63.97
55460;BME280;41326;45.302;-122.946;2023-04-09T09:48:30;101174.42;;;17.54;64.03
55460;BME280;41326;45.302;-122.946;2023-04-09T09:51:00;101177.64;;;17.48;64.27
55460;BME280;41326;45.302;-122.946;2023-04-09T09:53:31;101179.88;;;17.47;64.30
55460;BME280;41326;45.302;-122.946;2023-04-09T09:56:02;101187.39;;;17.46;64.36
55460;BME280;41326;45.302;-122.946;2023-04-09T09:58:35;101190.42;;;17.43;64.21
55460;BME280;41326;45.302;-122.946;2023-04-09T10:01:01;101191.93;;;17.41;64.20
55460;BME280;41326;45.302;-122.946;2023-04-09T10:03:32;101194.91;;;17.39;64.38
55460;BME280;41326;45.302;-122.946;2023-04-09T10:06:02;101192.56;;;17.42;64.30
55460;BME280;41326;45.302;-122.946;2023-04-09T10:08:33;101199.35;;;17.43;64.22
55460;BME280;41326;45.302;-122.946;2023-04-09T10:11:02;101199.39;;;17.42;64.23
55460;BME280;41326;45.302;-122.946;2023-04-09T10:13:36;101194.39;;;17.41;64.26
55460;BME280;41326;45.302;-122.946;2023-04-09T10:16:03;101193.25;;;17.39;64.27
55460;BME280;41326;45.302;-122.946;2023-04-09T10:18:35;101194.50;;;17.42;63.99
55460;BME280;41326;45.302;-122.946;2023-04-09T10:21:06;101194.21;;;17.41;63.93
55460;BME280;41326;45.302;-122.946;2023-04-09T10:23:38;101198.07;;;17.39;64.08
55460;BME280;41326;45.302;-122.946;2023-04-09T10:26:04;101198.31;;;17.38;64.25
55460;BME280;41326;45.302;-122.946;2023-04-09T10:28:36;101191.21;;;17.41;64.16
55460;BME280;41326;45.302;-122.946;2023-04-09T10:31:06;101193.17;;;17.42;64.09
55460;BME280;41326;45.302;-122.946;2023-04-09T10:33:36;101196.40;;;17.43;64.02
55460;BME280;41326;45.302;-122.946;2023-04-09T10:36:09;101198.21;;;17.42;64.10
55460;BME280;41326;45.302;-122.946;2023-04-09T10:38:44;101204.31;;;17.41;63.90
55460;BME280;41326;45.302;-122.946;2023-04-09T10:41:13;101205.26;;;17.39;63.89
55460;BME280;41326;45.302;-122.946;2023-04-09T10:43:38;101200.91;;;17.39;63.90
55460;BME280;41326;45.302;-122.946;2023-04-09T10:48:39;101193.57;;;17.37;63.98
55460;BME280;41326;45.302;-122.946;2023-04-09T10:51:08;101190.13;;;17.35;64.07
55460;BME280;41326;45.302;-122.946;2023-04-09T10:53:39;101187.39;;;17.34;64.05
55460;BME280;41326;45.302;-122.946;2023-04-09T10:56:14;101188.38;;;17.30;64.17
55460;BME280;41326;45.302;-122.946;2023-04-09T10:58:39;101185.95;;;17.30;64.04
55460;BME280;41326;45.302;-122.946;2023-04-09T11:01:10;101185.22;;;17.26;64.09
55460;BME280;41326;45.302;-122.946;2023-04-09T11:03:45;101182.51;;;17.27;64.09
55460;BME280;41326;45.302;-122.946;2023-04-09T11:06:13;101181.66;;;17.23;64.21
55460;BME280;41326;45.302;-122.946;2023-04-09T11:08:42;101178.17;;;17.25;64.14
55460;BME280;41326;45.302;-122.946;2023-04-09T11:11:12;101180.92;;;17.26;64.09
55460;BME280;41326;45.302;-122.946;2023-04-09T11:13:42;101186.56;;;17.24;64.17
55460;BME280;41326;45.302;-122.946;2023-04-09T11:16:13;101182.31;;;17.22;64.27
55460;BME280;41326;45.302;-122.946;2023-04-09T11:18:44;101182.40;;;17.23;64.03
55460;BME280;41326;45.302;-122.946;2023-04-09T11:21:13;101181.41;;;17.25;63.92
55460;BME280;41326;45.302;-122.946;2023-04-09T11:23:48;101184.09;;;17.22;64.11
55460;BME280;41326;45.302;-122.946;2023-04-09T11:26:14;101172.32;;;17.24;64.13
55460;BME280;41326;45.302;-122.946;2023-04-09T11:28:47;101170.30;;;17.22;64.21
55460;BME280;41326;45.302;-122.946;2023-04-09T11:31:15;101170.74;;;17.20;64.29
55460;BME280;41326;45.302;-122.946;2023-04-09T11:33:45;101160.27;;;17.19;64.39
55460;BME280;41326;45.302;-122.946;2023-04-09T11:36:15;101162.02;;;17.24;64.27
55460;BME280;41326;45.302;-122.946;2023-04-09T11:38:47;101170.75;;;17.25;64.21
55460;BME280;41326;45.302;-122.946;2023-04-09T11:41:16;101174.82;;;17.28;64.00
55460;BME280;41326;45.302;-122.946;2023-04-09T11:43:50;101176.38;;;17.36;63.80
55460;BME280;41326;45.302;-122.946;2023-04-09T11:46:17;101183.07;;;17.35;63.86
55460;BME280;41326;45.302;-122.946;2023-04-09T11:48:47;101181.27;;;17.38;63.73
55460;BME280;41326;45.302;-122.946;2023-04-09T11:51:18;101177.89;;;17.40;63.64
55460;BME280;41326;45.302;-122.946;2023-04-09T11:53:48;101178.68;;;17.41;63.63
55460;BME280;41326;45.302;-122.946;2023-04-09T11:56:18;101185.50;;;17.40;63.71
55460;BME280;41326;45.302;-122.946;2023-04-09T11:58:50;101184.71;;;17.39;63.53
55460;BME280;41326;45.302;-122.946;2023-04-09T12:01:20;101185.55;;;17.44;63.27
55460;BME280;41326;45.302;-122.946;2023-04-09T12:03:51;101184.21;;;17.40;63.46
55460;BME280;41326;45.302;-122.946;2023-04-09T12:06:20;101184.66;;;17.38;63.58
55460;BME280;41326;45.302;-122.946;2023-04-09T12:08:51;101187.42;;;17.38;63.66
55460;BME280;41326;45.302;-122.946;2023-04-09T12:11:25;101181.36;;;17.37;63.73
55460;BME280;41326;45.302;-122.946;2023-04-09T12:16:24;101171.95;;;17.36;63.79
55460;BME280;41326;45.302;-122.946;2023-04-09T12:18:52;101171.35;;;17.37;63.55
55460;BME280;41326;45.302;-122.946;2023-04-09T12:21:23;101163.13;;;17.38;63.42
55460;BME280;41326;45.302;-122.946;2023-04-09T12:23:51;101165.43;;;17.38;63.41
55460;BME280;41326;45.302;-122.946;2023-04-09T12:26:22;101173.49;;;17.37;63.55
55460;BME280;41326;45.302;-122.946;2023-04-09T12:28:52;101175.80;;;17.34;63.63
55460;BME280;41326;45.302;-122.946;2023-04-09T12:31:23;101169.85;;;17.34;63.71
55460;BME280;41326;45.302;-122.946;2023-04-09T12:33:52;101168.41;;;17.39;63.48
55460;BME280;41326;45.302;-122.946;2023-04-09T12:36:23;101170.98;;;17.31;63.65
55460;BME280;41326;45.302;-122.946;2023-04-09T12:38:53;101177.80;;;17.26;63.68
55460;BME280;41326;45.302;-122.946;2023-04-09T12:41:23;101187.94;;;17.24;63.61
55460;BME280;41326;45.302;-122.946;2023-04-09T12:43:54;101191.14;;;17.14;64.07
55460;BME280;41326;45.302;-122.946;2023-04-09T12:46:24;101177.00;;;17.12;64.16
55460;BME280;41326;45.302;-122.946;2023-04-09T12:48:54;101170.35;;;17.11;64.30